Time;durP1;ratioP1;P1;durP2;ratioP2;P2;SDS_P1;SDS_P2;PMS_P1;PMS_P2;Temp;Humidity;BMP_temperature;BMP_pressure;BME280_temperature;BME280_humidity;BME280_pressure;Samples;Min_cycle;Max_cycle;Signal;HPM_P1;HPM_P2
2022/07/11 00:00:03;;;;;;;5.65;3.30;;;;;;;16.49;70.62;102301.34;5064596;28;20070;-73
2022/07/11 00:02:28;;;;;;;5.93;3.22;;;;;;;16.45;70.64;102305.00;5058501;28;20029;-73
2022/07/11 00:04:53;;;;;;;5.88;3.80;;;;;;;16.42;71.02;102305.06;5062665;28;20028;-73
2022/07/11 00:07:19;;;;;;;6.53;3.90;;;;;;;16.38;72.13;102304.28;5055258;28;20391;-72
2022/07/11 00:09:44;;;;;;;7.18;4.47;;;;;;;16.38;72.12;102309.56;5061985;28;20530;-72
2022/07/11 00:12:11;;;;;;;7.00;4.10;;;;;;;16.35;72.67;102307.84;5060649;28;20024;-73
2022/07/11 00:14:39;;;;;;;6.45;3.97;;;;;;;16.34;72.87;102302.66;5057023;28;20024;-72
2022/07/11 00:17:05;;;;;;;8.13;4.13;;;;;;;16.31;72.97;102313.22;5059802;28;20024;-73
2022/07/11 00:19:31;;;;;;;7.00;4.43;;;;;;;16.30;73.16;102301.00;5061945;28;20021;-73
2022/07/11 00:21:56;;;;;;;8.18;4.43;;;;;;;16.29;72.72;102294.00;5067228;28;20027;-73
2022/07/11 00:24:21;;;;;;;7.00;4.60;;;;;;;16.29;73.16;102297.53;5059374;28;20119;-73
2022/07/11 00:26:48;;;;;;;6.70;4.60;;;;;;;16.29;73.32;102299.28;5055897;28;20025;-73
2022/07/11 00:29:14;;;;;;;7.97;4.45;;;;;;;16.25;73.59;102293.25;5055209;28;20020;-73
2022/07/11 00:31:39;;;;;;;10.15;4.55;;;;;;;16.21;73.89;102299.47;5060625;28;20498;-73
2022/07/11 00:34:04;;;;;;;7.38;4.82;;;;;;;16.15;74.20;102297.88;5064315;28;20112;-73
2022/07/11 00:36:31;;;;;;;8.93;4.50;;;;;;;16.13;74.36;102293.56;5057612;28;20502;-73
2022/07/11 00:38:56;;;;;;;10.13;4.80;;;;;;;16.09;74.74;102290.16;5056900;28;21521;-73
2022/07/11 00:41:22;;;;;;;9.65;5.07;;;;;;;16.06;74.85;102292.84;5058143;28;20075;-73
2022/07/11 00:43:56;;;;;;;6.68;4.93;;;;;;;16.03;74.42;102287.69;5064422;28;20024;-73
2022/07/11 00:46:22;;;;;;;7.93;4.55;;;;;;;16.01;74.90;102289.50;5062054;28;20024;-73
2022/07/11 00:48:47;;;;;;;7.90;5.07;;;;;;;16.00;74.94;102285.16;5059724;28;20067;-72
2022/07/11 00:51:13;;;;;;;8.60;5.22;;;;;;;15.98;74.94;102284.31;5060374;28;20025;-73
2022/07/11 00:53:39;;;;;;;6.97;4.53;;;;;;;15.97;75.19;102282.59;5057442;28;20035;-73
2022/07/11 00:56:05;;;;;;;8.00;4.72;;;;;;;15.93;75.50;102277.41;5059426;28;20029;-73
2022/07/11 00:58:31;;;;;;;7.60;4.85;;;;;;;15.95;75.42;102276.50;5060299;28;20364;-72
2022/07/11 01:00:57;;;;;;;7.53;4.75;;;;;;;15.94;75.39;102275.66;5061896;28;20083;-73
2022/07/11 01:03:22;;;;;;;6.68;4.82;;;;;;;15.93;75.37;102277.41;5065678;28;20037;-72
2022/07/11 01:05:48;;;;;;;6.43;4.85;;;;;;;15.92;74.89;102278.31;5059573;28;20070;-73
2022/07/11 01:08:13;;;;;;;6.90;4.95;;;;;;;15.93;75.56;102273.94;5058131;28;20337;-72
2022/07/11 01:10:38;;;;;;;8.15;5.07;;;;;;;15.94;75.65;102273.03;5057023;28;20032;-73
2022/07/11 01:13:04;;;;;;;7.60;4.90;;;;;;;15.93;75.91;102285.28;5058136;28;20032;-73
2022/07/11 01:15:29;;;;;;;7.72;4.97;;;;;;;15.94;76.00;102270.41;5057486;28;20017;-73
2022/07/11 01:17:54;;;;;;;9.95;5.55;;;;;;;15.93;75.99;102272.16;5054694;28;20509;-72
2022/07/11 01:20:22;;;;;;;8.73;5.72;;;;;;;15.95;76.18;102273.88;5056139;28;20028;-73
2022/07/11 01:22:51;;;;;;;7.95;5.40;;;;;;;15.96;76.26;102265.13;5063267;28;20032;-73
2022/07/11 01:25:34;;;;;;;11.38;5.40;;;;;;;15.93;76.49;102264.28;5061162;28;20115;-73
2022/07/11 01:28:02;;;;;;;8.93;5.22;;;;;;;15.95;76.62;102272.16;5042670;28;20024;-72
2022/07/11 01:30:28;;;;;;;9.13;5.38;;;;;;;15.95;76.74;102269.53;5058996;28;20036;-73
2022/07/11 01:32:54;;;;;;;9.82;5.72;;;;;;;15.96;76.68;102268.63;5055883;28;20029;-72
2022/07/11 01:35:20;;;;;;;8.13;5.53;;;;;;;15.96;76.77;102270.38;5058197;28;20112;-72
2022/07/11 01:37:46;;;;;;;10.50;5.82;;;;;;;15.96;76.95;102271.25;5058588;28;20068;-73
2022/07/11 01:40:11;;;;;;;8.27;5.63;;;;;;;15.97;76.75;102274.72;5062596;28;20127;-73
2022/07/11 01:42:37;;;;;;;8.05;5.65;;;;;;;15.96;76.85;102270.38;5059849;28;20429;-72
2022/07/11 01:45:03;;;;;;;8.98;5.40;;;;;;;15.97;77.00;102267.69;5059120;28;20027;-73
2022/07/11 01:47:28;;;;;;;7.85;5.63;;;;;;;15.97;77.15;102278.19;5058118;28;20115;-73
2022/07/11 01:49:55;;;;;;;10.95;5.53;;;;;;;15.99;77.37;102275.53;5060674;28;20154;-72
2022/07/11 01:52:20;;;;;;;8.95;5.53;;;;;;;15.98;77.44;102274.66;5062594;28;20024;-72
2022/07/11 01:54:45;;;;;;;10.15;5.70;;;;;;;15.99;77.21;102278.16;5057533;28;20124;-72
2022/07/11 01:57:11;;;;;;;10.32;5.65;;;;;;;15.98;77.21;102279.06;5061643;28;20040;-72
2022/07/11 01:59:36;;;;;;;8.48;5.07;;;;;;;16.00;77.31;102287.78;5063948;28;20021;-73
2022/07/11 02:02:01;;;;;;;6.97;4.93;;;;;;;15.99;77.53;102286.03;5062975;28;20082;-73
2022/07/11 02:04:27;;;;;;;6.78;5.07;;;;;;;16.01;77.35;102279.00;5061551;28;20032;-72
2022/07/11 02:06:52;;;;;;;8.23;5.25;;;;;;;16.00;77.32;102279.91;5061980;28;20024;-73
2022/07/11 02:09:18;;;;;;;9.30;5.35;;;;;;;16.02;77.55;102283.34;5057585;28;20021;-73
2022/07/11 02:11:43;;;;;;;7.28;4.82;;;;;;;16.02;77.47;102278.94;5037679;28;20027;-73
2022/07/11 02:14:08;;;;;;;7.97;5.05;;;;;;;16.03;77.59;102282.44;5058167;28;20028;-73
2022/07/11 02:16:34;;;;;;;8.18;5.15;;;;;;;16.05;77.43;102283.28;5061236;28;20111;-72
2022/07/11 02:18:59;;;;;;;8.93;5.22;;;;;;;16.04;77.46;102279.78;5059563;28;20463;-73
2022/07/11 02:21:24;;;;;;;7.88;5.05;;;;;;;16.04;77.67;102273.69;5061959;28;20269;-72
2022/07/11 02:23:49;;;;;;;7.45;5.03;;;;;;;16.05;77.88;102280.66;5058852;28;20373;-73
2022/07/11 02:26:15;;;;;;;8.80;4.85;;;;;;;16.06;77.71;102277.09;5054565;28;20047;-72
2022/07/11 02:28:42;;;;;;;8.50;4.75;;;;;;;16.07;77.90;102278.81;5057754;28;20032;-73
2022/07/11 02:31:07;;;;;;;8.35;5.07;;;;;;;16.06;77.78;102275.34;5060986;28;20071;-73
2022/07/11 02:33:32;;;;;;;8.57;4.40;;;;;;;16.08;77.91;102280.53;5057691;28;20020;-73
2022/07/11 02:35:58;;;;;;;6.90;4.75;;;;;;;16.10;77.74;102272.66;5061246;28;20365;-72
2022/07/11 02:38:23;;;;;;;8.57;4.93;;;;;;;16.12;77.93;102276.94;5058839;28;20077;-73
2022/07/11 02:40:48;;;;;;;8.32;4.65;;;;;;;16.11;77.90;102275.22;5054949;28;20040;-72
2022/07/11 02:43:15;;;;;;;7.50;4.40;;;;;;;16.13;77.93;102270.78;5056193;28;20039;-73
2022/07/11 02:45:40;;;;;;;7.70;4.63;;;;;;;16.14;78.02;102274.31;5057410;28;20060;-73
2022/07/11 02:48:06;;;;;;;6.47;4.28;;;;;;;16.17;78.10;102276.81;5052851;28;20048;-73
2022/07/11 02:50:31;;;;;;;5.93;3.92;;;;;;;16.17;78.07;102259.31;5057770;28;20025;-73
2022/07/11 02:52:56;;;;;;;7.70;4.55;;;;;;;16.17;77.83;102267.19;5060267;28;20071;-72
2022/07/11 02:55:22;;;;;;;10.20;4.22;;;;;;;16.19;77.79;102262.78;5067651;28;20016;-73
2022/07/11 02:57:47;;;;;;;7.70;4.13;;;;;;;16.21;77.70;102271.47;5042589;28;20043;-73
2022/07/11 03:00:16;;;;;;;6.53;3.70;;;;;;;16.21;77.91;102271.47;5056141;28;20457;-72
2022/07/11 03:02:41;;;;;;;7.00;3.70;;;;;;;16.22;77.78;102267.94;5058268;28;20028;-72
2022/07/11 03:05:07;;;;;;;6.93;3.78;;;;;;;16.23;77.88;102267.00;5035664;28;20029;-72
2022/07/11 03:07:33;;;;;;;4.93;3.35;;;;;;;16.21;77.83;102271.47;5058524;28;20029;-72
2022/07/11 03:09:58;;;;;;;6.18;3.78;;;;;;;16.22;77.67;102267.94;5057173;28;20468;-73
2022/07/11 03:12:23;;;;;;;6.55;3.47;;;;;;;16.24;77.89;102260.84;5059917;28;20025;-72
2022/07/11 03:14:49;;;;;;;7.07;3.70;;;;;;;16.27;77.99;102270.44;5063301;28;20460;-72
2022/07/11 03:17:17;;;;;;;6.32;3.28;;;;;;;16.27;77.84;102267.81;5053037;28;20021;-73
2022/07/11 03:19:43;;;;;;;7.72;4.10;;;;;;;16.27;77.84;102272.19;5056851;28;20021;-72
2022/07/11 03:22:09;;;;;;;5.13;3.25;;;;;;;16.27;77.83;102274.81;5057105;28;20027;-73
2022/07/11 03:24:34;;;;;;;4.60;3.38;;;;;;;16.27;78.01;102275.69;5060420;28;20028;-73
2022/07/11 03:26:59;;;;;;;6.50;3.30;;;;;;;16.26;77.95;102273.97;5065194;28;20017;-73
2022/07/11 03:29:25;;;;;;;6.32;3.22;;;;;;;16.27;77.75;102280.94;5057231;28;20043;-73
2022/07/11 03:31:50;;;;;;;6.30;2.85;;;;;;;16.28;78.11;102281.78;5059488;28;21799;-72
2022/07/11 03:34:15;;;;;;;5.22;3.28;;;;;;;16.28;77.95;102280.03;5059148;28;20028;-73
2022/07/11 03:36:40;;;;;;;9.05;3.25;;;;;;;16.27;77.92;102280.94;5065383;28;20227;-72
2022/07/11 03:39:06;;;;;;;5.90;3.17;;;;;;;16.24;78.07;102276.63;5063330;28;20082;-73
2022/07/11 03:41:31;;;;;;;4.57;3.28;;;;;;;16.23;77.77;102280.13;5063444;28;20051;-72
2022/07/11 03:43:56;;;;;;;6.50;3.38;;;;;;;16.23;77.74;102285.38;5062424;28;20024;-73
2022/07/11 03:46:22;;;;;;;6.90;3.40;;;;;;;16.22;77.80;102278.44;5058444;28;20068;-73
2022/07/11 03:48:47;;;;;;;5.40;3.15;;;;;;;16.22;78.10;102278.44;5059534;28;20521;-73
2022/07/11 03:51:12;;;;;;;8.18;3.10;;;;;;;16.21;77.90;102276.72;5063320;28;20052;-73
2022/07/11 03:53:38;;;;;;;5.60;3.22;;;;;;;16.21;78.26;102281.97;5067919;28;20020;-72
2022/07/11 03:56:03;;;;;;;8.18;3.30;;;;;;;16.21;78.08;102275.84;5064782;28;20020;-72
2022/07/11 03:58:29;;;;;;;7.47;3.58;;;;;;;16.21;78.35;102279.34;5071367;28;20361;-73
2022/07/11 04:00:55;;;;;;;10.05;3.65;;;;;;;16.24;78.50;102278.38;5064407;28;20063;-72
2022/07/11 04:03:20;;;;;;;6.25;3.20;;;;;;;16.27;78.34;102278.31;5071820;28;20021;-72
2022/07/11 04:05:45;;;;;;;4.43;3.10;;;;;;;16.30;78.31;102280.00;5061661;28;20033;-73
2022/07/11 04:08:10;;;;;;;4.68;3.10;;;;;;;16.31;78.16;102281.72;5067506;28;20048;-72
2022/07/11 04:10:36;;;;;;;6.07;3.03;;;;;;;16.31;78.18;102276.47;5065249;28;20027;-73
2022/07/11 04:13:01;;;;;;;4.47;3.00;;;;;;;16.31;78.32;102279.09;5068064;28;20025;-73
2022/07/11 04:15:26;;;;;;;7.03;2.92;;;;;;;16.32;78.21;102278.19;5065501;28;20024;-72
2022/07/11 04:17:52;;;;;;;7.97;2.95;;;;;;;16.32;78.27;102275.56;5067517;28;20020;-73
2022/07/11 04:20:17;;;;;;;5.55;2.75;;;;;;;16.31;78.37;102274.69;5069915;28;20037;-73
2022/07/11 04:22:42;;;;;;;5.47;3.10;;;;;;;16.31;78.58;102277.31;5064383;28;20464;-72
2022/07/11 04:25:08;;;;;;;4.05;2.70;;;;;;;16.33;78.42;102274.66;5063022;28;20028;-73
2022/07/11 04:27:33;;;;;;;4.18;2.70;;;;;;;16.34;78.44;102281.63;5066897;28;20471;-73
2022/07/11 04:29:58;;;;;;;4.38;2.92;;;;;;;16.35;78.40;102278.97;5067797;28;20031;-72
2022/07/11 04:32:24;;;;;;;5.20;2.50;;;;;;;16.36;78.26;102277.22;5067683;28;20025;-73
2022/07/11 04:34:49;;;;;;;5.47;2.88;;;;;;;16.36;78.13;102274.59;5065935;28;20024;-73
2022/07/11 04:37:14;;;;;;;5.10;2.60;;;;;;;16.37;78.28;102281.56;5065316;28;20115;-73
2022/07/11 04:39:40;;;;;;;6.38;2.50;;;;;;;16.38;78.40;102288.53;5060451;28;20041;-73
2022/07/11 04:42:06;;;;;;;5.28;2.60;;;;;;;16.36;78.21;102283.31;5067637;28;20029;-72
2022/07/11 04:44:35;;;;;;;5.43;2.67;;;;;;;16.37;78.33;102292.06;5058361;28;20024;-73
2022/07/11 04:47:00;;;;;;;6.90;2.88;;;;;;;16.37;78.69;102298.16;5058605;28;20464;-72
2022/07/11 04:49:25;;;;;;;6.53;3.20;;;;;;;16.37;78.45;102300.78;5064727;28;20035;-73
2022/07/11 04:51:50;;;;;;;5.15;2.85;;;;;;;16.39;78.32;102295.50;5069531;28;20085;-72
2022/07/11 04:54:16;;;;;;;6.28;3.00;;;;;;;16.40;78.48;102294.59;5066687;28;20094;-73
2022/07/11 04:56:41;;;;;;;4.28;2.85;;;;;;;16.41;78.44;102298.09;5064599;28;20035;-72
2022/07/11 04:59:07;;;;;;;6.20;3.30;;;;;;;16.38;78.75;102301.66;5065000;28;21028;-73
2022/07/11 05:01:32;;;;;;;6.40;3.00;;;;;;;16.37;78.57;102302.56;5062975;28;20032;-73
2022/07/11 05:03:58;;;;;;;9.52;3.33;;;;;;;16.39;78.70;102303.41;5063900;28;20521;-73
2022/07/11 05:06:23;;;;;;;9.98;3.60;;;;;;;16.39;78.72;102306.03;5066004;28;20021;-73
2022/07/11 05:08:48;;;;;;;5.50;3.47;;;;;;;16.39;78.71;102303.41;5068991;28;20038;-73
2022/07/11 05:11:13;;;;;;;6.55;3.50;;;;;;;16.39;78.79;102314.75;5067503;28;20474;-73
2022/07/11 05:13:39;;;;;;;6.90;3.38;;;;;;;16.37;78.87;102308.66;5061071;28;20024;-73
2022/07/11 05:16:05;;;;;;;5.90;3.65;;;;;;;16.37;78.94;102313.06;5066491;28;20108;-73
2022/07/11 05:18:30;;;;;;;7.82;3.85;;;;;;;16.37;79.39;102306.03;5059698;28;20067;-73
2022/07/11 05:20:57;;;;;;;5.20;3.28;;;;;;;16.41;78.63;102313.84;5064785;28;20422;-73
2022/07/11 05:23:22;;;;;;;5.43;3.22;;;;;;;16.41;79.04;102309.44;5067437;28;20100;-72
2022/07/11 05:25:47;;;;;;;6.60;3.10;;;;;;;16.44;78.83;102314.63;5059286;28;20127;-73
2022/07/11 05:28:13;;;;;;;4.63;2.92;;;;;;;16.44;78.26;102313.78;5062556;28;20036;-72
2022/07/11 05:30:38;;;;;;;4.75;2.75;;;;;;;16.44;78.56;102313.78;5058858;28;20028;-73
2022/07/11 05:33:03;;;;;;;4.40;2.42;;;;;;;16.44;78.00;102319.03;5066955;28;20029;-73
2022/07/11 05:35:28;;;;;;;5.28;2.50;;;;;;;16.40;78.45;102318.22;5061982;28;20120;-73
2022/07/11 05:37:54;;;;;;;4.97;2.70;;;;;;;16.40;78.61;102326.09;5062289;28;20020;-73
2022/07/11 05:40:19;;;;;;;6.03;3.00;;;;;;;16.38;78.84;102320.91;5061559;28;20048;-72
2022/07/11 05:42:45;;;;;;;5.30;2.70;;;;;;;16.37;79.07;102319.19;5062447;28;20038;-73
2022/07/11 05:45:10;;;;;;;13.35;3.60;;;;;;;16.35;79.17;102320.97;5065030;28;20115;-73
2022/07/11 05:47:36;;;;;;;5.13;2.75;;;;;;;16.37;79.45;102318.34;5070063;28;20051;-73
2022/07/11 05:50:01;;;;;;;6.03;2.65;;;;;;;16.37;79.22;102318.34;5066220;28;20492;-73
2022/07/11 05:52:26;;;;;;;4.10;2.35;;;;;;;16.40;79.49;102323.47;5059997;28;20104;-72
2022/07/11 05:54:52;;;;;;;5.40;2.50;;;;;;;16.42;79.64;102316.41;5056695;28;20023;-73
2022/07/11 05:57:17;;;;;;;5.75;2.58;;;;;;;16.45;79.28;102332.09;5042550;28;20052;-73
2022/07/11 05:59:42;;;;;;;5.28;2.20;;;;;;;16.46;79.10;102328.56;5060154;28;20497;-73
2022/07/11 06:02:08;;;;;;;6.28;2.47;;;;;;;16.47;79.00;102339.97;5057349;28;20082;-73
2022/07/11 06:04:34;;;;;;;3.08;2.20;;;;;;;16.48;79.06;102331.19;5057033;28;20036;-72
2022/07/11 06:06:59;;;;;;;3.38;1.80;;;;;;;16.47;78.73;102340.81;5065696;28;20033;-73
2022/07/11 06:09:25;;;;;;;3.53;1.48;;;;;;;16.42;78.79;102332.19;5068435;28;20074;-72
2022/07/11 06:11:51;;;;;;;4.13;1.60;;;;;;;16.43;78.99;102339.16;5061081;28;20399;-73
2022/07/11 06:14:16;;;;;;;2.80;1.60;;;;;;;16.45;78.94;102345.25;5068628;28;20054;-72
2022/07/11 06:16:42;;;;;;;4.25;1.92;;;;;;;16.44;79.10;102345.28;5064049;28;20029;-73
2022/07/11 06:19:07;;;;;;;3.88;1.52;;;;;;;16.44;78.83;102340.88;5065096;28;20103;-73
2022/07/11 06:21:33;;;;;;;4.07;1.75;;;;;;;16.44;78.58;102343.50;5067954;28;20061;-72
2022/07/11 06:23:59;;;;;;;3.55;1.60;;;;;;;16.41;78.79;102340.13;5067019;28;20048;-73
2022/07/11 06:26:24;;;;;;;3.88;1.50;;;;;;;16.39;79.06;102342.78;5064321;28;20094;-73
2022/07/11 06:28:50;;;;;;;5.70;1.58;;;;;;;16.37;79.54;102340.19;5065907;28;20024;-74
2022/07/11 06:31:18;;;;;;;2.42;1.58;;;;;;;16.38;79.53;102348.94;5066937;28;20129;-71
2022/07/11 06:33:43;;;;;;;3.22;1.58;;;;;;;16.36;79.65;102338.47;5060281;28;20028;-73
2022/07/11 06:36:09;;;;;;;3.83;1.80;;;;;;;16.33;79.70;102351.66;5058131;28;20032;-72
2022/07/11 06:38:34;;;;;;;2.88;2.00;;;;;;;16.34;79.71;102347.28;5060799;28;20032;-72
2022/07/11 06:41:00;;;;;;;3.90;1.77;;;;;;;16.33;79.95;102348.19;5053943;28;20566;-72
2022/07/11 06:43:27;;;;;;;4.30;1.90;;;;;;;16.33;80.51;102353.44;5057857;28;20032;-72
2022/07/11 06:45:53;;;;;;;4.75;1.90;;;;;;;16.35;80.31;102342.00;5056914;28;20462;-72
2022/07/11 06:48:20;;;;;;;4.20;2.10;;;;;;;16.38;80.32;102341.91;5055606;28;20057;-73
2022/07/11 06:50:46;;;;;;;3.50;2.03;;;;;;;16.46;80.75;102344.34;5057191;28;20082;-72
2022/07/11 06:53:11;;;;;;;4.45;2.35;;;;;;;16.53;80.30;102343.28;5069315;28;20028;-72
2022/07/11 06:55:36;;;;;;;4.05;2.40;;;;;;;16.57;79.83;102341.44;5069244;28;20494;-72
2022/07/11 06:58:02;;;;;;;3.90;2.00;;;;;;;16.62;79.59;102341.28;5053208;28;20052;-72
2022/07/11 07:00:31;;;;;;;4.97;2.55;;;;;;;16.64;78.78;102342.13;5063813;28;20020;-72
2022/07/11 07:02:56;;;;;;;3.60;2.15;;;;;;;16.63;79.22;102329.88;5063755;28;20029;-72
2022/07/11 07:05:25;;;;;;;3.80;2.40;;;;;;;16.67;79.17;102336.78;5066749;28;20089;-72
2022/07/11 07:07:51;;;;;;;5.32;2.53;;;;;;;16.69;79.09;102329.72;5067710;28;20460;-72
2022/07/11 07:10:17;;;;;;;3.78;2.22;;;;;;;16.74;79.05;102337.47;5066125;28;20043;-72
2022/07/11 07:12:44;;;;;;;4.28;2.50;;;;;;;16.79;78.82;102327.72;5066740;28;20052;-72
2022/07/11 07:15:10;;;;;;;3.38;2.40;;;;;;;16.79;77.84;102331.19;5068815;28;20308;-72
2022/07/11 07:17:35;;;;;;;2.60;1.95;;;;;;;16.81;77.60;102324.13;5068000;28;20369;-72
2022/07/11 07:20:00;;;;;;;2.80;2.00;;;;;;;16.87;77.48;102338.00;5066873;28;20036;-72
2022/07/11 07:22:26;;;;;;;3.22;1.92;;;;;;;16.93;77.69;102332.56;5068297;28;20109;-72
2022/07/11 07:24:51;;;;;;;3.22;1.77;;;;;;;17.02;77.49;102329.69;5066925;28;20134;-72
2022/07/11 07:27:16;;;;;;;2.22;1.60;;;;;;;17.07;76.65;102322.56;5066196;28;20383;-72
2022/07/11 07:29:42;;;;;;;2.10;1.40;;;;;;;17.11;76.45;102325.94;5070021;28;20383;-72
2022/07/11 07:32:07;;;;;;;3.42;1.55;;;;;;;17.16;76.01;102329.31;5070013;28;20029;-72
2022/07/11 07:34:33;;;;;;;2.30;1.50;;;;;;;17.19;76.18;102329.19;5071263;28;20031;-72
2022/07/11 07:36:59;;;;;;;2.25;1.40;;;;;;;17.24;75.71;102331.72;5073266;28;20028;-72
2022/07/11 07:39:25;;;;;;;2.85;1.80;;;;;;;17.27;75.58;102326.31;5066125;28;20055;-72
2022/07/11 07:41:50;;;;;;;2.45;1.20;;;;;;;17.30;74.80;102328.88;5072654;28;20460;-72
2022/07/11 07:44:15;;;;;;;2.90;1.50;;;;;;;17.29;74.62;102325.41;5054516;28;20524;-72
2022/07/11 07:46:41;;;;;;;2.10;1.30;;;;;;;17.33;74.51;102328.78;5071310;28;20020;-72
2022/07/11 07:49:06;;;;;;;1.77;1.30;;;;;;;17.34;73.98;102333.13;5070380;28;20028;-72
2022/07/11 07:51:32;;;;;;;1.85;1.50;;;;;;;17.37;74.55;102332.19;5066551;28;20024;-72
2022/07/11 07:53:57;;;;;;;1.63;1.40;;;;;;;17.39;74.88;102333.00;5063944;28;20028;-72
2022/07/11 07:56:23;;;;;;;1.67;1.30;;;;;;;17.43;74.01;102338.09;5065525;28;20020;-72
2022/07/11 07:58:51;;;;;;;3.40;1.48;;;;;;;17.47;75.38;102335.38;5046638;28;20077;-72
2022/07/11 08:01:34;;;;;;;3.10;1.40;;;;;;;17.50;74.66;102336.19;5058723;28;20063;-72
2022/07/11 08:04:00;;;;;;;1.50;1.17;;;;;;;17.54;74.03;102350.09;5063283;28;20478;-72
2022/07/11 08:06:26;;;;;;;2.67;1.50;;;;;;;17.52;73.96;102344.84;5047606;28;20081;-72
2022/07/11 08:08:51;;;;;;;1.60;1.50;;;;;;;17.50;74.96;102343.19;5065273;28;20032;-72
2022/07/11 08:11:16;;;;;;;1.83;1.60;;;;;;;17.49;75.08;102344.09;5062740;28;20043;-72
2022/07/11 08:13:42;;;;;;;3.33;1.67;;;;;;;17.52;74.70;102346.63;5066538;28;20016;-73
2022/07/11 08:16:08;;;;;;;2.00;1.42;;;;;;;17.54;74.67;102350.94;5062385;28;20812;-72
2022/07/11 08:18:34;;;;;;;2.00;1.20;;;;;;;17.52;74.04;102358.00;5057026;28;20117;-72
2022/07/11 08:20:59;;;;;;;1.95;1.42;;;;;;;17.48;73.33;102353.78;5060590;28;20171;-72
2022/07/11 08:23:25;;;;;;;1.63;1.25;;;;;;;17.49;73.72;102352.88;5060165;28;20494;-73
2022/07/11 08:25:50;;;;;;;3.00;1.40;;;;;;;17.50;73.34;102351.09;5060745;28;20032;-72
2022/07/11 08:28:16;;;;;;;1.98;1.50;;;;;;;17.49;73.88;102352.00;5060368;28;20066;-72
2022/07/11 08:30:41;;;;;;;1.95;1.50;;;;;;;17.50;73.84;102353.72;5062795;28;20400;-72
2022/07/11 08:33:06;;;;;;;2.83;1.75;;;;;;;17.47;74.04;102343.28;5065956;28;20129;-72
2022/07/11 08:35:32;;;;;;;3.63;2.10;;;;;;;17.45;73.99;102346.81;5062471;28;20108;-72
2022/07/11 08:37:57;;;;;;;3.10;2.15;;;;;;;17.45;74.46;102351.22;5063486;28;20028;-72
2022/07/11 08:40:22;;;;;;;2.95;1.90;;;;;;;17.44;73.98;102354.78;5062140;28;20045;-72
2022/07/11 08:42:47;;;;;;;3.92;2.20;;;;;;;17.40;74.41;102361.91;5066203;28;20737;-72
2022/07/11 08:45:14;;;;;;;3.90;2.30;;;;;;;17.39;75.05;102354.91;5064807;28;20112;-72
2022/07/11 08:47:40;;;;;;;3.58;2.58;;;;;;;17.42;74.31;102356.59;5065993;28;20035;-73
2022/07/11 08:50:07;;;;;;;3.80;2.60;;;;;;;17.41;74.01;102355.72;5063844;28;20028;-73
2022/07/11 08:52:33;;;;;;;4.35;2.88;;;;;;;17.42;74.17;102356.59;5058185;28;20033;-72
2022/07/11 08:54:59;;;;;;;5.05;3.40;;;;;;;17.45;74.03;102352.06;5054780;28;20119;-72
2022/07/11 08:57:25;;;;;;;5.53;3.88;;;;;;;17.48;74.13;102351.16;5053375;28;20038;-72
2022/07/11 08:59:55;;;;;;;5.22;3.90;;;;;;;17.50;73.33;102351.97;5037678;28;21683;-72
2022/07/11 09:02:22;;;;;;;6.17;4.20;;;;;;;17.52;73.44;102351.91;5053387;28;20081;-73
2022/07/11 09:04:47;;;;;;;7.55;4.28;;;;;;;17.50;73.61;102348.44;5055278;28;20463;-72
2022/07/11 09:07:13;;;;;;;6.45;4.22;;;;;;;17.49;73.66;102346.72;5053504;28;20033;-73
2022/07/11 09:09:38;;;;;;;7.20;4.25;;;;;;;17.52;73.95;102346.63;5054457;28;20480;-73
2022/07/11 09:12:11;;;;;;;7.53;4.13;;;;;;;17.51;73.94;102344.91;5054460;28;20056;-73
2022/07/11 09:14:38;;;;;;;5.57;4.10;;;;;;;17.52;73.51;102344.84;5058430;28;20033;-73
2022/07/11 09:17:06;;;;;;;6.93;4.63;;;;;;;17.54;73.86;102350.09;5023846;28;20123;-73
2022/07/11 09:19:36;;;;;;;8.88;4.10;;;;;;;17.53;74.19;102348.38;5048336;28;20099;-73
2022/07/11 09:28:04;;;;;;;4.88;3.70;;;;;;;17.50;73.71;102358.97;5052970;28;20378;-72
2022/07/11 09:30:31;;;;;;;3.83;2.97;;;;;;;17.51;74.68;102358.06;5052037;28;20045;-72
2022/07/11 09:33:00;;;;;;;5.28;3.20;;;;;;;17.57;74.99;102350.00;5054280;28;20029;-73
2022/07/11 09:35:29;;;;;;;4.50;2.90;;;;;;;17.65;74.29;102355.03;5051558;28;20053;-73
2022/07/11 09:37:55;;;;;;;4.15;2.88;;;;;;;17.71;73.64;102353.06;5058885;28;20060;-73
2022/07/11 09:40:22;;;;;;;3.63;2.50;;;;;;;17.78;73.37;102347.56;5058325;28;20131;-73
2022/07/11 09:42:50;;;;;;;4.38;2.50;;;;;;;17.82;73.07;102355.34;5054029;28;20032;-74
2022/07/11 09:45:16;;;;;;;3.55;2.45;;;;;;;17.88;73.32;102349.00;5059135;28;20054;-73
2022/07/11 09:47:43;;;;;;;3.45;2.25;;;;;;;17.95;73.35;102350.53;5056707;28;21079;-73
2022/07/11 09:50:08;;;;;;;3.05;2.15;;;;;;;17.97;72.29;102356.59;5058441;28;20546;-73
2022/07/11 09:52:34;;;;;;;3.17;2.22;;;;;;;18.03;73.03;102345.91;5057605;28;20048;-73
2022/07/11 09:55:02;;;;;;;4.07;2.33;;;;;;;18.13;71.56;102350.84;5056103;28;20031;-74
2022/07/11 09:57:31;;;;;;;3.55;2.33;;;;;;;18.22;72.61;102347.94;5060520;28;20028;-74
2022/07/11 09:59:57;;;;;;;3.28;2.17;;;;;;;18.31;72.39;102346.75;5054725;28;20039;-73
2022/07/11 10:02:22;;;;;;;3.60;2.22;;;;;;;18.34;70.37;102350.13;5050969;28;20037;-74
2022/07/11 10:04:49;;;;;;;4.10;2.30;;;;;;;18.38;71.12;102348.25;5058287;28;20177;-73
2022/07/11 10:07:15;;;;;;;3.67;2.47;;;;;;;18.41;70.48;102348.16;5056066;28;20060;-72
2022/07/11 10:09:40;;;;;;;3.05;2.20;;;;;;;18.42;70.92;102346.38;5055676;28;20033;-73
2022/07/11 10:12:07;;;;;;;2.63;2.10;;;;;;;18.46;71.64;102346.22;5056774;28;20036;-72
2022/07/11 10:14:36;;;;;;;2.65;1.90;;;;;;;18.55;70.80;102345.03;5054885;28;20065;-72
2022/07/11 10:17:09;;;;;;;2.15;1.60;;;;;;;18.64;69.70;102349.13;5058695;28;20060;-73
2022/07/11 10:19:40;;;;;;;3.08;1.58;;;;;;;18.71;68.48;102349.75;5053673;28;20029;-72
2022/07/11 10:22:21;;;;;;;1.52;1.40;;;;;;;18.79;69.54;102358.22;5056841;28;20037;-74
2022/07/11 10:25:14;;;;;;;2.35;1.55;;;;;;;18.81;69.50;102356.41;5055985;28;20033;-73
2022/07/11 10:27:39;;;;;;;2.95;1.25;;;;;;;18.85;69.25;102352.75;5049743;28;20032;-74
2022/07/11 10:30:05;;;;;;;1.30;1.20;;;;;;;18.90;68.25;102358.72;5049747;28;21415;-73
2022/07/11 10:32:30;;;;;;;2.05;1.38;;;;;;;18.90;67.77;102358.72;5050658;28;20382;-72
2022/07/11 10:35:11;;;;;;;1.30;1.20;;;;;;;18.91;68.93;102362.19;5053690;28;20683;-72
2022/07/11 10:37:53;;;;;;;3.55;1.20;;;;;;;18.91;68.88;102363.09;5050507;28;20044;-71
2022/07/11 10:40:43;;;;;;;5.25;1.48;;;;;;;18.94;68.93;102356.81;5054268;28;20067;-75
2022/07/11 10:43:09;;;;;;;1.92;1.40;;;;;;;18.89;67.63;102353.47;5034904;28;20036;-76
2022/07/11 10:45:55;;;;;;;2.63;1.50;;;;;;;18.85;68.50;102354.53;5047123;28;20025;-76
2022/07/11 10:48:20;;;;;;;2.25;1.60;;;;;;;18.87;67.66;102358.81;5047967;28;20036;-76
2022/07/11 10:50:46;;;;;;;1.70;1.60;;;;;;;18.95;68.37;102354.19;5051627;28;20438;-76
2022/07/11 10:53:21;;;;;;;2.75;1.80;;;;;;;19.05;68.98;102359.09;5049348;28;20037;-77
2022/07/11 10:55:52;;;;;;;2.25;1.80;;;;;;;19.13;68.46;102362.28;5050822;28;20574;-77
2022/07/11 10:58:28;;;;;;;2.03;1.83;;;;;;;19.18;67.49;102362.97;5051911;28;20036;-77
2022/07/11 11:01:13;;;;;;;2.05;1.75;;;;;;;19.19;67.30;102363.88;5052607;28;20040;-75
2022/07/11 11:03:44;;;;;;;2.38;1.90;;;;;;;19.14;67.59;102368.44;5052616;28;20632;-75
2022/07/11 11:06:10;;;;;;;3.38;2.38;;;;;;;19.14;68.53;102368.44;5040192;28;20032;-75
2022/07/11 11:08:40;;;;;;;3.40;2.13;;;;;;;19.14;67.17;102371.09;5060875;28;20033;-76
2022/07/11 11:11:21;;;;;;;3.17;2.30;;;;;;;19.12;67.23;102365.88;5054912;28;20063;-75
2022/07/11 11:14:15;;;;;;;4.47;2.70;;;;;;;19.11;68.30;102364.16;5035463;28;20025;-75
2022/07/11 11:16:41;;;;;;;2.67;2.28;;;;;;;19.08;68.82;102361.63;5053296;28;20494;-76
2022/07/11 11:19:07;;;;;;;4.15;2.50;;;;;;;19.07;68.24;102376.56;5057126;28;20036;-75
2022/07/11 11:21:32;;;;;;;2.97;2.13;;;;;;;19.06;68.66;102368.72;5052713;28;20092;-75
2022/07/11 11:24:02;;;;;;;4.88;2.10;;;;;;;19.04;68.19;102363.53;5057631;28;20035;-75
2022/07/11 11:26:48;;;;;;;1.60;1.50;;;;;;;19.04;67.84;102374.06;5056421;28;20029;-75